Time;durP1;ratioP1;P1;durP2;ratioP2;P2;SDS_P1;SDS_P2;PMS_P1;PMS_P2;Temp;Humidity;BMP_temperature;BMP_pressure;BME280_temperature;BME280_humidity;BME280_pressure;Samples;Min_cycle;Max_cycle;Signal;HPM_P1;HPM_P2
2022/07/16 00:01:49;;;;;;;5.30;3.33;;;;;;;21.10;nan;-24403.72;4970451;28;20204;-57
2022/07/16 00:04:15;;;;;;;5.32;3.40;;;;;;;21.10;nan;-24403.72;4978972;28;20197;-57
2022/07/16 00:06:43;;;;;;;5.35;3.60;;;;;;;20.99;nan;-24400.66;4977386;28;20715;-57
2022/07/16 00:09:58;;;;;;;3.35;2.85;;;;;;;20.87;nan;-24397.19;5008647;28;20189;-57
2022/07/16 00:12:27;;;;;;;5.38;3.30;;;;;;;20.65;nan;-24391.22;4977432;28;20219;-57
2022/07/16 00:14:53;;;;;;;4.00;2.88;;;;;;;18.68;nan;-24337.00;4977299;28;20181;-57
2022/07/16 00:17:18;;;;;;;5.05;3.45;;;;;;;20.65;nan;-24391.22;4979104;28;20252;-56
2022/07/16 00:19:45;;;;;;;4.88;3.30;;;;;;;20.66;nan;-24391.50;4976949;28;20196;-57
2022/07/16 00:22:10;;;;;;;4.22;3.10;;;;;;;20.63;nan;-24390.81;4976536;28;20204;-56
2022/07/16 00:24:36;;;;;;;4.65;2.90;;;;;;;17.86;nan;-24314.44;4977848;28;20301;-56
2022/07/16 00:27:01;;;;;;;3.83;2.90;;;;;;;20.40;nan;-24384.28;4977259;28;20737;-58
2022/07/16 00:29:27;;;;;;;3.90;3.08;;;;;;;20.66;nan;-24391.50;4979067;28;20706;-57
2022/07/16 00:31:54;;;;;;;4.18;2.80;;;;;;;20.94;nan;-24399.16;4975251;28;20204;-57
2022/07/16 00:34:20;;;;;;;3.55;2.90;;;;;;;20.84;nan;-24396.50;4978070;28;20181;-56
2022/07/16 00:36:46;;;;;;;3.38;2.78;;;;;;;20.76;nan;-24394.28;4977106;28;20236;-56
2022/07/16 00:39:12;;;;;;;4.43;3.15;;;;;;;21.06;nan;-24402.59;4981383;28;20185;-56
2022/07/16 00:41:39;;;;;;;3.80;2.78;;;;;;;21.08;nan;-24403.16;4977781;28;20192;-56
2022/07/16 00:44:07;;;;;;;4.85;2.80;;;;;;;21.08;nan;-24403.03;4977580;28;20248;-56
2022/07/16 00:46:34;;;;;;;4.05;2.80;;;;;;;21.27;nan;-24408.16;4978527;28;20187;-56
2022/07/16 00:49:00;;;;;;;3.03;2.50;;;;;;;21.03;nan;-24401.78;4977088;28;20185;-55
2022/07/16 00:51:26;;;;;;;4.13;2.80;;;;;;;21.09;nan;-24403.31;4979527;28;20196;-56
2022/07/16 00:53:53;;;;;;;4.25;3.15;;;;;;;20.82;nan;-24395.94;4977132;28;20606;-57
2022/07/16 00:56:18;;;;;;;3.50;2.60;;;;;;;20.97;nan;-24400.13;4978851;28;20635;-56
2022/07/16 00:58:45;;;;;;;4.88;3.10;;;;;;;20.81;nan;-24395.66;4975451;28;20260;-56
2022/07/16 01:01:12;;;;;;;3.92;2.78;;;;;;;20.77;nan;-24394.41;4981269;28;20604;-56
2022/07/16 01:03:39;;;;;;;5.35;2.85;;;;;;;20.28;nan;-24381.22;4977734;28;20209;-56
2022/07/16 01:06:06;;;;;;;4.05;2.90;;;;;;;20.07;nan;-24375.25;4975610;28;20185;-56
2022/07/16 01:08:36;;;;;;;3.42;2.53;;;;;;;20.60;nan;-24389.97;4978708;28;20648;-57
2022/07/16 01:11:05;;;;;;;2.92;2.60;;;;;;;20.73;nan;-24393.44;4977239;28;20181;-56
2022/07/16 01:13:32;;;;;;;4.43;2.50;;;;;;;20.77;nan;-24394.41;4982192;28;20176;-57
2022/07/16 01:15:57;;;;;;;4.55;3.10;;;;;;;20.67;nan;-24391.94;4980742;28;20185;-56
2022/07/16 01:18:23;;;;;;;4.10;3.10;;;;;;;20.49;nan;-24386.78;4982918;28;20723;-56
2022/07/16 01:20:48;;;;;;;3.40;2.70;;;;;;;20.94;nan;-24399.28;4980588;28;20551;-57
2022/07/16 01:23:24;;;;;;;3.20;2.45;;;;;;;20.70;nan;-24392.63;4985143;28;20205;-56
2022/07/16 01:25:51;;;;;;;2.65;2.33;;;;;;;20.48;nan;-24386.66;4980328;28;20636;-56
2022/07/16 01:28:17;;;;;;;3.20;2.80;;;;;;;20.22;nan;-24379.44;4982396;28;20608;-55
2022/07/16 01:30:43;;;;;;;3.50;2.53;;;;;;;20.80;nan;-24395.25;4979090;28;20182;-56
2022/07/16 01:33:21;;;;;;;3.63;2.70;;;;;;;20.87;nan;-24397.34;4981686;28;20775;-56
2022/07/16 01:35:47;;;;;;;3.25;2.55;;;;;;;20.87;nan;-24397.19;4980073;28;20268;-57
2022/07/16 01:38:13;;;;;;;4.53;2.50;;;;;;;20.90;nan;-24398.03;4982412;28;20189;-56
2022/07/16 01:40:38;;;;;;;3.67;2.53;;;;;;;21.11;nan;-24404.00;4980767;28;20260;-56
2022/07/16 01:43:04;;;;;;;3.88;2.72;;;;;;;21.27;nan;-24408.16;4978684;28;20209;-56
2022/07/16 01:45:29;;;;;;;3.67;2.63;;;;;;;21.43;nan;-24412.72;4981787;28;20526;-56
2022/07/16 01:47:54;;;;;;;6.35;3.20;;;;;;;21.02;nan;-24401.50;4980310;28;20232;-56
2022/07/16 01:50:20;;;;;;;5.95;2.58;;;;;;;21.07;nan;-24402.75;4982015;28;20767;-56
2022/07/16 01:52:45;;;;;;;3.25;2.45;;;;;;;20.95;nan;-24399.41;4979780;28;20185;-56
2022/07/16 01:55:11;;;;;;;4.55;2.92;;;;;;;20.86;nan;-24396.91;4983949;28;20185;-57
2022/07/16 01:57:51;;;;;;;3.80;2.88;;;;;;;20.98;nan;-24400.38;4978433;28;20193;-56
2022/07/16 02:00:17;;;;;;;3.45;2.78;;;;;;;21.09;nan;-24403.44;4978372;28;20192;-56
2022/07/16 02:02:42;;;;;;;3.40;2.65;;;;;;;21.20;nan;-24406.34;4979959;28;20181;-55
2022/07/16 02:05:08;;;;;;;5.90;2.78;;;;;;;21.13;nan;-24404.41;4980481;28;20181;-56
2022/07/16 02:07:33;;;;;;;3.80;2.75;;;;;;;20.87;nan;-24397.34;4980840;28;20663;-56
2022/07/16 02:09:59;;;;;;;4.50;2.90;;;;;;;20.77;nan;-24394.56;4980156;28;20247;-56
2022/07/16 02:12:24;;;;;;;3.85;2.70;;;;;;;21.00;nan;-24400.81;4981907;28;20704;-56
2022/07/16 02:14:49;;;;;;;4.70;2.78;;;;;;;20.74;nan;-24393.72;4979486;28;20185;-57
2022/07/16 02:17:15;;;;;;;4.30;2.88;;;;;;;20.58;nan;-24389.44;4979747;28;20559;-56
2022/07/16 02:19:40;;;;;;;3.70;2.63;;;;;;;20.86;nan;-24396.91;4979571;28;20265;-56
2022/07/16 02:22:07;;;;;;;3.72;2.85;;;;;;;20.63;nan;-24390.81;4980261;28;21178;-56
2022/07/16 02:24:32;;;;;;;4.05;2.65;;;;;;;20.64;nan;-24391.09;4978174;28;20197;-57
2022/07/16 02:26:58;;;;;;;4.20;2.75;;;;;;;20.89;nan;-24397.91;4979497;28;20185;-56
2022/07/16 02:29:23;;;;;;;2.95;2.50;;;;;;;20.55;nan;-24388.47;4978277;28;20185;-56
2022/07/16 02:31:49;;;;;;;4.25;2.80;;;;;;;20.65;nan;-24391.22;4981541;28;20239;-56
2022/07/16 02:34:14;;;;;;;4.32;3.20;;;;;;;20.89;nan;-24397.75;4979373;28;20264;-57
2022/07/16 02:36:40;;;;;;;3.42;2.60;;;;;;;20.78;nan;-24394.69;4979149;28;20229;-56
2022/07/16 02:39:05;;;;;;;3.35;2.70;;;;;;;20.70;nan;-24392.63;4979558;28;20189;-57
2022/07/16 02:41:31;;;;;;;3.67;2.75;;;;;;;20.90;nan;-24398.03;4979046;28;20184;-57
2022/07/16 02:43:56;;;;;;;3.85;2.83;;;;;;;20.75;nan;-24393.88;4981187;28;20205;-56
2022/07/16 02:46:22;;;;;;;6.03;2.67;;;;;;;20.68;nan;-24392.06;4981238;28;20177;-56
2022/07/16 02:48:47;;;;;;;2.97;2.30;;;;;;;21.10;nan;-24403.56;4977722;28;20185;-55
2022/07/16 02:51:13;;;;;;;3.83;2.80;;;;;;;18.06;nan;-24320.00;4978855;28;20185;-55
2022/07/16 02:53:39;;;;;;;4.07;3.10;;;;;;;20.98;nan;-24400.38;4978955;28;20692;-56
2022/07/16 02:56:05;;;;;;;3.95;2.83;;;;;;;20.50;nan;-24387.06;4979532;28;20643;-56
2022/07/16 02:58:30;;;;;;;3.40;2.75;;;;;;;20.64;nan;-24390.97;4979799;28;20187;-55
2022/07/16 03:00:56;;;;;;;3.97;2.75;;;;;;;20.66;nan;-24391.50;4978514;28;20257;-56
2022/07/16 03:03:21;;;;;;;5.28;2.95;;;;;;;20.78;nan;-24394.69;4980652;28;20578;-56
2022/07/16 03:05:47;;;;;;;3.88;2.88;;;;;;;21.01;nan;-24401.09;4978350;28;20193;-56
2022/07/16 03:08:13;;;;;;;4.60;2.60;;;;;;;20.95;nan;-24399.56;4980717;28;20185;-57
2022/07/16 03:10:38;;;;;;;4.43;2.80;;;;;;;20.89;nan;-24397.91;4976677;28;20191;-55
2022/07/16 03:13:04;;;;;;;4.13;3.00;;;;;;;21.34;nan;-24410.25;4979109;28;20189;-55
2022/07/16 03:15:29;;;;;;;3.42;2.75;;;;;;;21.68;nan;-24419.38;4978102;28;20185;-56
2022/07/16 03:17:55;;;;;;;5.80;2.85;;;;;;;22.18;nan;-24433.22;4978794;28;20193;-56
2022/07/16 03:20:20;;;;;;;3.63;2.63;;;;;;;22.63;nan;-24445.53;4980210;28;20577;-56
2022/07/16 03:22:47;;;;;;;3.33;2.65;;;;;;;22.89;nan;-24452.59;4977974;28;20656;-57
2022/07/16 03:25:15;;;;;;;4.78;2.83;;;;;;;22.34;nan;-24437.66;4980270;28;20264;-57
2022/07/16 03:27:41;;;;;;;3.65;2.72;;;;;;;22.97;nan;-24454.81;4976317;28;20688;-56
2022/07/16 03:30:07;;;;;;;3.28;2.70;;;;;;;23.64;nan;-24473.19;4979002;28;20281;-56
2022/07/16 03:32:32;;;;;;;3.03;2.63;;;;;;;24.56;nan;-24498.16;4978417;28;20182;-56
2022/07/16 03:34:58;;;;;;;4.15;2.80;;;;;;;25.06;nan;-24511.91;4978946;28;20621;-57
2022/07/16 03:37:23;;;;;;;4.20;2.60;;;;;;;25.92;nan;-24535.31;4977567;28;20233;-57
2022/07/16 03:39:49;;;;;;;5.45;2.63;;;;;;;26.61;nan;-24553.84;4977449;28;20248;-57
2022/07/16 03:42:14;;;;;;;3.92;2.60;;;;;;;26.94;nan;-24562.91;4982154;28;20645;-57
2022/07/16 03:44:40;;;;;;;3.85;2.60;;;;;;;27.54;nan;-24579.09;4978203;28;20642;-56
2022/07/16 03:47:05;;;;;;;5.05;2.90;;;;;;;27.63;nan;-24581.56;4978138;28;20188;-57
2022/07/16 03:49:31;;;;;;;2.95;2.35;;;;;;;28.58;nan;-24607.28;4977208;28;20175;-56
2022/07/16 03:51:56;;;;;;;3.42;2.63;;;;;;;29.13;nan;-24622.19;4977715;28;20265;-55
2022/07/16 03:54:22;;;;;;;3.20;2.40;;;;;;;30.10;nan;-24648.28;4979649;28;20184;-57
2022/07/16 03:56:47;;;;;;;3.25;2.50;;;;;;;26.21;nan;-24543.00;4977294;28;20189;-57
2022/07/16 03:59:13;;;;;;;3.80;2.75;;;;;;;31.16;nan;-24676.75;4979321;28;20181;-56
2022/07/16 04:01:39;;;;;;;3.45;2.58;;;;;;;31.53;nan;-24686.81;4977429;28;20184;-56
2022/07/16 04:04:04;;;;;;;5.25;2.75;;;;;;;31.98;nan;-24698.91;4977198;28;20213;-56
2022/07/16 04:06:30;;;;;;;3.58;2.47;;;;;;;32.53;nan;-24713.56;4981434;28;20207;-57
2022/07/16 04:08:55;;;;;;;2.63;2.40;;;;;;;33.11;nan;-24729.16;4977710;28;20637;-57
2022/07/16 04:11:21;;;;;;;5.03;2.88;;;;;;;33.28;nan;-24733.75;4979659;28;20199;-56
2022/07/16 04:13:46;;;;;;;3.75;2.53;;;;;;;33.24;nan;-24732.81;4977076;28;20189;-57
2022/07/16 04:16:12;;;;;;;5.13;2.70;;;;;;;33.19;nan;-24731.31;4979166;28;20814;-56
2022/07/16 04:18:38;;;;;;;3.15;2.58;;;;;;;33.55;nan;-24741.06;4977998;28;20299;-56
2022/07/16 04:21:04;;;;;;;3.03;2.33;;;;;;;33.81;nan;-24747.84;4975784;28;20286;-57
2022/07/16 04:23:30;;;;;;;3.25;2.75;;;;;;;33.88;nan;-24749.88;4978876;28;20795;-56
2022/07/16 04:25:56;;;;;;;2.88;2.50;;;;;;;34.16;nan;-24757.44;4977776;28;20258;-58
2022/07/16 04:28:21;;;;;;;3.70;2.65;;;;;;;34.10;nan;-24755.69;4977540;28;20181;-58
2022/07/16 04:30:47;;;;;;;3.15;2.45;;;;;;;34.10;nan;-24755.81;4977573;28;20192;-59
2022/07/16 04:33:12;;;;;;;5.20;2.90;;;;;;;34.12;nan;-24756.38;4976635;28;20644;-56
2022/07/16 04:35:38;;;;;;;3.88;2.50;;;;;;;34.22;nan;-24758.81;4975229;28;20194;-56
2022/07/16 04:38:03;;;;;;;3.83;2.95;;;;;;;33.54;nan;-24740.66;4976326;28;20212;-56
2022/07/16 04:40:29;;;;;;;3.70;2.80;;;;;;;33.43;nan;-24737.69;4976202;28;20184;-57
2022/07/16 04:42:55;;;;;;;5.10;2.75;;;;;;;33.40;nan;-24736.88;4976099;28;20199;-56
2022/07/16 04:45:21;;;;;;;4.15;2.78;;;;;;;33.15;nan;-24730.38;4978197;28;20172;-57
2022/07/16 04:47:47;;;;;;;5.15;2.53;;;;;;;33.42;nan;-24737.56;4977258;28;20183;-57
2022/07/16 04:50:12;;;;;;;3.08;2.60;;;;;;;33.30;nan;-24734.31;4980568;28;20570;-57
2022/07/16 04:52:38;;;;;;;4.32;2.60;;;;;;;33.13;nan;-24729.69;4979802;28;20188;-56
2022/07/16 04:55:05;;;;;;;3.67;2.70;;;;;;;32.80;nan;-24720.88;4979896;28;20652;-58
2022/07/16 04:57:31;;;;;;;3.45;2.40;;;;;;;33.01;nan;-24726.59;4980235;28;20191;-57
2022/07/16 04:59:58;;;;;;;2.88;2.30;;;;;;;32.83;nan;-24721.84;4979994;28;20184;-58
2022/07/16 05:05:08;;;;;;;3.15;2.60;;;;;;;32.24;nan;-24705.97;4978920;28;20693;-56
2022/07/16 05:07:34;;;;;;;3.80;2.70;;;;;;;31.10;nan;-24675.25;4979575;28;20176;-57
2022/07/16 05:09:59;;;;;;;2.83;2.50;;;;;;;30.63;nan;-24662.59;4978676;28;20188;-58
2022/07/16 05:12:25;;;;;;;3.22;2.53;;;;;;;30.86;nan;-24668.84;4980030;28;20187;-57
2022/07/16 05:14:50;;;;;;;4.35;2.72;;;;;;;31.01;nan;-24672.78;4979810;28;20568;-56
2022/07/16 05:17:16;;;;;;;3.40;2.60;;;;;;;30.62;nan;-24662.44;4979182;28;20281;-58
2022/07/16 05:19:41;;;;;;;2.95;2.42;;;;;;;30.91;nan;-24670.22;4978815;28;20235;-57
2022/07/16 05:22:06;;;;;;;7.72;3.00;;;;;;;30.94;nan;-24670.88;4978788;28;20719;-56
2022/07/16 05:24:32;;;;;;;3.28;2.55;;;;;;;30.88;nan;-24669.25;4977871;28;20676;-58
2022/07/16 05:26:58;;;;;;;3.58;2.70;;;;;;;31.26;nan;-24679.47;4978331;28;20283;-57
2022/07/16 05:29:23;;;;;;;3.78;2.78;;;;;;;31.53;nan;-24686.94;4978291;28;20200;-57
2022/07/16 05:31:49;;;;;;;3.30;2.60;;;;;;;31.63;nan;-24689.41;4978165;28;20283;-55
2022/07/16 05:34:14;;;;;;;3.25;2.78;;;;;;;31.84;nan;-24695.22;4977606;28;20231;-57
2022/07/16 05:36:40;;;;;;;4.07;2.92;;;;;;;31.88;nan;-24696.19;5010283;28;20228;-56
2022/07/16 05:39:05;;;;;;;4.47;3.00;;;;;;;32.07;nan;-24701.34;4978151;28;20184;-56
2022/07/16 05:41:31;;;;;;;4.10;2.80;;;;;;;31.21;nan;-24678.25;4977970;28;20172;-56
2022/07/16 05:43:57;;;;;;;3.65;2.83;;;;;;;29.69;nan;-24637.22;4979298;28;20204;-56
2022/07/16 05:46:23;;;;;;;3.53;2.85;;;;;;;29.59;nan;-24634.63;4977795;28;20243;-57
2022/07/16 05:48:49;;;;;;;3.63;2.90;;;;;;;29.48;nan;-24631.50;4975269;28;20180;-58
2022/07/16 05:51:14;;;;;;;5.43;3.25;;;;;;;28.51;nan;-24605.53;4977547;28;20671;-58
2022/07/16 05:53:40;;;;;;;7.00;3.28;;;;;;;28.64;nan;-24608.81;4978378;28;20843;-57
2022/07/16 05:56:06;;;;;;;4.70;3.25;;;;;;;28.41;nan;-24602.66;4976394;28;20189;-56
2022/07/16 05:58:31;;;;;;;4.22;3.15;;;;;;;28.36;nan;-24601.28;4976257;28;20263;-58
2022/07/16 06:00:57;;;;;;;3.95;2.97;;;;;;;27.92;nan;-24589.50;4979071;28;20187;-56
2022/07/16 06:03:23;;;;;;;4.50;3.30;;;;;;;28.13;nan;-24595.00;4977525;28;20759;-57
2022/07/16 06:05:48;;;;;;;5.03;3.30;;;;;;;28.07;nan;-24593.63;4976937;28;20195;-57
2022/07/16 06:08:14;;;;;;;3.70;3.17;;;;;;;28.17;nan;-24596.22;4977452;28;20911;-55
2022/07/16 06:10:39;;;;;;;3.63;3.10;;;;;;;28.08;nan;-24593.75;4980331;28;20235;-58
2022/07/16 06:13:10;;;;;;;4.82;3.17;;;;;;;27.81;nan;-24586.34;4977183;28;20185;-56
2022/07/16 06:15:36;;;;;;;6.40;3.05;;;;;;;27.95;nan;-24590.19;4977283;28;20593;-58
2022/07/16 06:18:01;;;;;;;3.45;3.10;;;;;;;27.82;nan;-24586.78;4978162;28;20173;-58
2022/07/16 06:20:27;;;;;;;3.88;2.90;;;;;;;27.69;nan;-24583.22;5008448;28;20202;-56
2022/07/16 06:22:54;;;;;;;4.10;2.90;;;;;;;28.06;nan;-24593.22;4976311;28;20208;-58
2022/07/16 06:25:20;;;;;;;3.30;2.50;;;;;;;27.09;nan;-24566.91;4976794;28;20177;-58
2022/07/16 06:27:46;;;;;;;3.55;2.60;;;;;;;28.03;nan;-24592.53;4978298;28;20189;-59
2022/07/16 06:30:13;;;;;;;3.42;2.45;;;;;;;28.30;nan;-24599.66;4976565;28;20563;-58
2022/07/16 06:32:39;;;;;;;3.75;2.63;;;;;;;28.45;nan;-24603.75;4976730;28;20177;-57
2022/07/16 06:35:06;;;;;;;5.53;2.72;;;;;;;28.60;nan;-24607.72;4975871;28;20170;-57
2022/07/16 06:37:31;;;;;;;4.45;3.10;;;;;;;28.84;nan;-24614.28;4979290;28;20224;-57
2022/07/16 06:39:57;;;;;;;3.50;3.05;;;;;;;28.95;nan;-24617.28;4977060;28;20185;-57
2022/07/16 06:42:22;;;;;;;4.63;2.55;;;;;;;28.54;nan;-24606.34;4979148;28;20653;-56
2022/07/16 06:44:48;;;;;;;3.85;2.63;;;;;;;29.13;nan;-24622.19;4978163;28;20196;-56
2022/07/16 06:47:13;;;;;;;5.25;2.65;;;;;;;28.78;nan;-24612.63;4980511;28;20181;-58
2022/07/16 06:49:38;;;;;;;5.68;2.50;;;;;;;29.28;nan;-24626.28;4978690;28;20232;-58
2022/07/16 06:52:04;;;;;;;4.30;2.83;;;;;;;29.51;nan;-24632.31;4976199;28;20207;-56
2022/07/16 06:54:30;;;;;;;3.63;3.00;;;;;;;29.65;nan;-24636.25;4978263;28;20195;-56
2022/07/16 06:56:55;;;;;;;3.88;2.72;;;;;;;29.77;nan;-24639.53;4988048;28;20192;-57
2022/07/16 06:59:20;;;;;;;3.13;2.50;;;;;;;29.91;nan;-24643.09;4978557;28;20219;-57
2022/07/16 07:01:46;;;;;;;3.33;2.42;;;;;;;29.95;nan;-24644.31;4978302;28;20263;-56
2022/07/16 07:04:11;;;;;;;3.45;2.22;;;;;;;29.91;nan;-24643.22;4980473;28;20676;-57
2022/07/16 07:06:37;;;;;;;2.78;2.00;;;;;;;30.00;nan;-24645.69;4979819;28;20190;-56
2022/07/16 07:09:02;;;;;;;2.83;2.25;;;;;;;30.19;nan;-24650.72;4978130;28;20617;-57
2022/07/16 07:11:28;;;;;;;2.67;2.22;;;;;;;30.05;nan;-24646.91;4979954;28;20188;-57
2022/07/16 07:13:53;;;;;;;2.75;2.33;;;;;;;30.63;nan;-24662.59;4978795;28;20642;-57
2022/07/16 07:16:18;;;;;;;2.63;2.35;;;;;;;30.37;nan;-24655.63;4980677;28;20719;-57
2022/07/16 07:18:44;;;;;;;2.33;2.13;;;;;;;30.54;nan;-24660.25;4978799;28;20292;-57
2022/07/16 07:21:09;;;;;;;2.67;2.33;;;;;;;30.46;nan;-24657.94;4979726;28;20621;-57
2022/07/16 07:23:35;;;;;;;2.75;2.15;;;;;;;30.51;nan;-24659.44;4979415;28;20668;-58
2022/07/16 07:26:01;;;;;;;2.78;2.40;;;;;;;30.77;nan;-24666.25;4978548;28;20240;-56
2022/07/16 07:28:28;;;;;;;2.30;2.00;;;;;;;31.03;nan;-24673.34;4980490;28;20683;-58
2022/07/16 07:30:54;;;;;;;2.95;2.13;;;;;;;30.86;nan;-24668.72;4978252;28;20272;-56
2022/07/16 07:33:19;;;;;;;2.88;2.22;;;;;;;31.14;nan;-24676.34;4979012;28;20172;-58
2022/07/16 07:35:45;;;;;;;2.95;2.15;;;;;;;30.97;nan;-24671.84;4981516;28;20192;-56
2022/07/16 07:38:10;;;;;;;2.25;2.03;;;;;;;31.29;nan;-24680.28;4979585;28;20687;-57
2022/07/16 07:40:36;;;;;;;2.95;2.17;;;;;;;30.94;nan;-24671.03;4978792;28;20267;-56
2022/07/16 07:43:03;;;;;;;2.20;1.88;;;;;;;31.21;nan;-24678.09;4978351;28;20644;-55
2022/07/16 07:45:28;;;;;;;5.22;1.88;;;;;;;31.25;nan;-24679.19;4979644;28;20175;-57
2022/07/16 07:47:54;;;;;;;2.28;1.95;;;;;;;31.01;nan;-24672.78;4978222;28;20188;-57
2022/07/16 07:50:19;;;;;;;2.35;2.00;;;;;;;31.29;nan;-24680.41;4977923;28;20278;-57
2022/07/16 07:52:45;;;;;;;3.05;2.35;;;;;;;31.44;nan;-24684.50;4978045;28;20183;-58
2022/07/16 07:55:10;;;;;;;4.05;2.15;;;;;;;31.51;nan;-24686.41;4979431;28;20574;-58
2022/07/16 07:57:36;;;;;;;3.65;2.20;;;;;;;31.55;nan;-24687.50;4978323;28;20176;-57
2022/07/16 08:00:04;;;;;;;2.92;2.10;;;;;;;31.62;nan;-24689.13;4977903;28;20188;-57
2022/07/16 08:02:29;;;;;;;3.05;2.28;;;;;;;31.73;nan;-24692.09;4979386;28;20188;-57
2022/07/16 08:04:55;;;;;;;3.78;2.20;;;;;;;31.64;nan;-24689.78;4975684;28;20299;-56
2022/07/16 08:07:20;;;;;;;2.83;2.33;;;;;;;31.35;nan;-24681.91;4979868;28;20184;-57
2022/07/16 08:09:46;;;;;;;2.88;2.30;;;;;;;31.39;nan;-24683.00;4975020;28;20187;-58
2022/07/16 08:12:11;;;;;;;2.70;2.40;;;;;;;31.36;nan;-24682.19;4981477;28;20176;-58
2022/07/16 08:14:37;;;;;;;2.90;2.17;;;;;;;31.58;nan;-24688.03;4978282;28;20251;-58
2022/07/16 08:17:03;;;;;;;4.15;2.53;;;;;;;32.10;nan;-24702.16;4975392;28;20191;-57
2022/07/16 08:19:30;;;;;;;2.33;2.00;;;;;;;31.88;nan;-24696.19;4979030;28;20247;-57
2022/07/16 08:21:56;;;;;;;2.50;2.30;;;;;;;32.06;nan;-24700.94;4977097;28;20271;-57
2022/07/16 08:27:06;;;;;;;2.92;2.33;;;;;;;32.30;nan;-24707.59;4977546;28;20200;-57
2022/07/16 08:29:32;;;;;;;2.53;2.10;;;;;;;31.97;nan;-24698.63;4977431;28;20183;-57
2022/07/16 08:31:57;;;;;;;2.53;2.28;;;;;;;32.23;nan;-24705.56;4977391;28;20188;-57
2022/07/16 08:34:24;;;;;;;2.63;2.22;;;;;;;32.23;nan;-24705.69;4979205;28;20207;-57
2022/07/16 08:36:51;;;;;;;3.28;2.40;;;;;;;32.43;nan;-24711.13;4976891;28;20596;-57
2022/07/16 08:39:17;;;;;;;2.20;1.98;;;;;;;32.55;nan;-24714.09;4977527;28;20176;-57
2022/07/16 08:41:43;;;;;;;6.70;2.70;;;;;;;32.43;nan;-24710.97;4981021;28;20181;-57
2022/07/16 08:44:11;;;;;;;2.67;2.20;;;;;;;32.84;nan;-24722.09;4977799;28;20780;-58
2022/07/16 08:46:37;;;;;;;3.53;2.72;;;;;;;32.95;nan;-24724.97;4977954;28;20198;-57
2022/07/16 08:49:04;;;;;;;2.97;2.30;;;;;;;32.86;nan;-24722.66;4977512;28;20188;-56
2022/07/16 08:51:37;;;;;;;2.70;2.38;;;;;;;33.15;nan;-24730.38;4978839;28;20194;-58
2022/07/16 08:54:16;;;;;;;2.65;2.30;;;;;;;33.28;nan;-24733.91;4979882;28;20243;-56
2022/07/16 08:56:45;;;;;;;3.00;2.30;;;;;;;33.09;nan;-24728.63;4977080;28;20188;-57
2022/07/16 08:59:13;;;;;;;2.70;2.20;;;;;;;33.01;nan;-24726.44;4978834;28;20187;-57
2022/07/16 09:01:38;;;;;;;4.90;2.60;;;;;;;33.37;nan;-24736.06;4977664;28;20196;-57
2022/07/16 09:04:04;;;;;;;2.75;2.30;;;;;;;33.34;nan;-24735.25;4977337;28;20688;-57
2022/07/16 09:06:30;;;;;;;2.75;2.38;;;;;;;33.24;nan;-24732.81;4978603;28;20210;-56
2022/07/16 09:08:56;;;;;;;2.50;2.15;;;;;;;33.48;nan;-24739.19;4976774;28;20255;-57
2022/07/16 09:11:26;;;;;;;3.00;2.40;;;;;;;33.32;nan;-24734.72;4979031;28;20180;-57
2022/07/16 09:14:05;;;;;;;3.08;2.50;;;;;;;33.49;nan;-24739.44;4976673;28;20181;-55
2022/07/16 09:16:33;;;;;;;3.90;2.53;;;;;;;33.43;nan;-24737.84;4978337;28;20254;-56
2022/07/16 09:19:16;;;;;;;3.15;2.28;;;;;;;33.17;nan;-24730.91;4977059;28;20189;-56
2022/07/16 09:22:12;;;;;;;2.65;2.28;;;;;;;33.57;nan;-24741.63;4980909;28;20184;-57
2022/07/16 09:24:40;;;;;;;4.90;2.58;;;;;;;33.60;nan;-24742.28;4979679;28;20223;-57
2022/07/16 09:27:07;;;;;;;4.13;2.20;;;;;;;33.52;nan;-24740.25;4977022;28;20180;-57
2022/07/16 09:29:34;;;;;;;2.90;2.60;;;;;;;33.66;nan;-24744.06;4978111;28;20188;-57
2022/07/16 09:32:00;;;;;;;3.13;2.50;;;;;;;33.57;nan;-24741.63;4974573;28;20526;-56
2022/07/16 09:34:25;;;;;;;3.15;2.60;;;;;;;33.75;nan;-24746.38;4981938;28;20180;-57
2022/07/16 09:37:03;;;;;;;2.92;2.63;;;;;;;34.03;nan;-24753.94;4979955;28;20266;-56
2022/07/16 09:39:29;;;;;;;3.15;2.50;;;;;;;33.85;nan;-24749.06;4981477;28;20599;-57
2022/07/16 09:41:56;;;;;;;3.90;3.00;;;;;;;33.59;nan;-24742.16;4980252;28;20675;-57
2022/07/16 09:44:25;;;;;;;3.92;3.10;;;;;;;;;;4982025;28;20223;-56
2022/07/16 09:47:12;;;;;;;3.22;2.90;;;;;;;33.86;nan;-24749.19;4977752;28;20191;-56
2022/07/16 09:49:39;;;;;;;5.35;3.00;;;;;;;34.02;nan;-24753.66;4979754;28;20194;-57
2022/07/16 09:52:06;;;;;;;3.55;2.92;;;;;;;34.27;nan;-24760.28;4977822;28;20196;-56
2022/07/16 09:54:37;;;;;;;3.67;2.90;;;;;;;34.29;nan;-24760.69;4978261;28;20188;-57
2022/07/16 09:57:15;;;;;;;3.80;3.10;;;;;;;33.96;nan;-24751.91;4980838;28;20267;-57
2022/07/16 09:59:43;;;;;;;3.60;2.97;;;;;;;33.96;nan;-24752.03;4977744;28;20184;-56
2022/07/16 10:02:09;;;;;;;4.10;2.88;;;;;;;34.35;nan;-24762.31;4978813;28;20255;-56
2022/07/16 10:04:34;;;;;;;2.97;2.63;;;;;;;34.17;nan;-24757.72;4977221;28;20755;-57
2022/07/16 10:07:00;;;;;;;4.88;3.05;;;;;;;34.12;nan;-24756.38;4979471;28;20207;-57
2022/07/16 10:09:26;;;;;;;4.60;3.10;;;;;;;34.17;nan;-24757.59;4981372;28;20644;-58
2022/07/16 10:11:54;;;;;;;4.28;2.90;;;;;;;34.22;nan;-24758.94;4979255;28;20231;-56
2022/07/16 10:14:21;;;;;;;3.05;2.67;;;;;;;34.27;nan;-24760.16;4981255;28;20181;-56
2022/07/16 10:16:48;;;;;;;3.28;2.92;;;;;;;34.46;nan;-24765.44;4978585;28;20185;-56
2022/07/16 10:19:14;;;;;;;3.42;2.92;;;;;;;34.41;nan;-24764.06;4980955;28;20193;-57
2022/07/16 10:22:00;;;;;;;4.70;2.63;;;;;;;34.44;nan;-24764.75;4979505;28;20187;-57
2022/07/16 10:24:43;;;;;;;4.15;2.60;;;;;;;34.81;nan;-24774.75;4980588;28;20238;-58
2022/07/16 10:27:24;;;;;;;8.70;4.38;;;;;;;34.92;nan;-24777.72;4978948;28;20641;-57
2022/07/16 10:29:50;;;;;;;6.38;5.43;;;;;;;34.90;nan;-24777.03;4977506;28;20195;-57
2022/07/16 10:32:27;;;;;;;6.95;4.45;;;;;;;34.96;nan;-24778.78;4981551;28;20181;-57
2022/07/16 10:34:54;;;;;;;5.05;3.90;;;;;;;35.01;nan;-24780.00;4976910;28;20189;-57
2022/07/16 10:37:30;;;;;;;3.65;2.95;;;;;;;34.74;nan;-24772.84;4980729;28;20228;-57
2022/07/16 10:40:09;;;;;;;3.80;2.80;;;;;;;34.88;nan;-24776.50;4979045;28;20665;-57
2022/07/16 10:42:35;;;;;;;3.50;2.90;;;;;;;35.28;nan;-24787.16;4982932;28;20266;-57
2022/07/16 10:45:01;;;;;;;3.88;2.78;;;;;;;34.76;nan;-24773.41;4978810;28;20739;-57
2022/07/16 10:47:44;;;;;;;4.40;2.97;;;;;;;34.53;nan;-24767.19;4981194;28;20263;-57
2022/07/16 10:50:16;;;;;;;3.70;2.63;;;;;;;34.76;nan;-24773.41;4980445;28;20195;-57
2022/07/16 10:52:44;;;;;;;4.15;2.70;;;;;;;35.11;nan;-24782.72;4981224;28;20681;-56
2022/07/16 10:55:10;;;;;;;3.17;2.80;;;;;;;35.31;nan;-24787.97;4979968;28;20644;-57
2022/07/16 10:57:43;;;;;;;3.70;2.85;;;;;;;35.21;nan;-24785.28;4979931;28;20180;-57
2022/07/16 11:00:09;;;;;;;4.15;2.97;;;;;;;35.55;nan;-24794.44;4979731;28;20728;-57
2022/07/16 11:02:39;;;;;;;6.35;3.28;;;;;;;35.42;nan;-24790.94;4979494;28;20275;-58
2022/07/16 11:05:06;;;;;;;2.92;2.63;;;;;;;35.58;nan;-24795.25;4979113;28;20284;-56
2022/07/16 11:07:36;;;;;;;3.33;2.63;;;;;;;35.75;nan;-24799.84;4979780;28;20190;-57
2022/07/16 11:10:03;;;;;;;3.10;2.42;;;;;;;35.78;nan;-24800.66;4978703;28;20247;-56
2022/07/16 11:12:32;;;;;;;3.08;2.72;;;;;;;36.14;nan;-24810.09;4980446;28;20596;-55
2022/07/16 11:15:00;;;;;;;2.83;2.50;;;;;;;35.94;nan;-24804.69;4978948;28;20239;-56
2022/07/16 11:17:29;;;;;;;4.20;2.92;;;;;;;35.58;nan;-24795.25;4980543;28;20184;-56
2022/07/16 11:19:57;;;;;;;3.15;2.60;;;;;;;35.79;nan;-24800.91;4978718;28;20188;-57
2022/07/16 11:22:26;;;;;;;3.33;2.83;;;;;;;35.72;nan;-24798.91;4980786;28;20184;-57
2022/07/16 11:25:00;;;;;;;2.90;2.53;;;;;;;35.38;nan;-24790.00;4977893;28;20688;-57
2022/07/16 11:27:38;;;;;;;3.20;2.70;;;;;;;35.64;nan;-24796.88;4980128;28;20655;-57
2022/07/16 11:30:07;;;;;;;3.63;2.92;;;;;;;35.39;nan;-24790.25;4978520;28;20695;-57
2022/07/16 11:32:32;;;;;;;4.88;2.80;;;;;;;35.55;nan;-24794.44;4979728;28;20213;-58
2022/07/16 11:35:04;;;;;;;3.33;2.72;;;;;;;35.69;nan;-24798.09;4978273;28;20192;-57
2022/07/16 11:37:46;;;;;;;7.60;2.83;;;;;;;35.63;nan;-24796.59;4996377;28;20376;-57
2022/07/16 11:40:11;;;;;;;2.78;2.50;;;;;;;35.26;nan;-24786.63;4980523;28;20188;-55
2022/07/16 11:42:37;;;;;;;3.85;2.45;;;;;;;;;;4978307;28;20283;-56
2022/07/16 11:45:04;;;;;;;3.80;2.75;;;;;;;35.61;nan;-24795.94;4980048;28;20544;-54
2022/07/16 11:47:29;;;;;;;3.50;3.00;;;;;;;35.25;nan;-24786.34;4976902;28;20548;-56
2022/07/16 11:49:55;;;;;;;3.85;3.38;;;;;;;35.62;nan;-24796.34;4975213;28;20184;-56